AIZ53 LLBG-LGKR
Flight info
| Callsign | AIZ53 |
|---|---|
| Flight time | N/A |
| Altitude | 38000 |
| Route | SUVAS L53 ANIDE DCT KUGGI DCT KOR UL53 GARTA L53 PARNA |
| Aircraft | A320/M-SDE3FGHIRWY/LB1 |
Departure
| Time | 2026-05-07 18:02 |
|---|---|
| Airport | Ben Gurion International Airport (LLBG) |
Arrival
| Time | N/A |
|---|---|
| Airport | Corfu Ioannis Kapodistrias International Airport (LGKR) |
| Time | Latitude | Longitude | Altitude | Speed | Heading |
|---|---|---|---|---|---|
| 2026-05-07 17:35 | 32.00290 | 34.87916 | 120 ft | 0 kts | 120° |
| 2026-05-07 17:48 | 32.00300 | 34.87899 | 120 ft | 4 kts | 128° |
| 2026-05-07 17:48 | 32.00316 | 34.87874 | 120 ft | 4 kts | 111° |
| 2026-05-07 17:48 | 32.00322 | 34.87848 | 120 ft | 4 kts | 86° |
| 2026-05-07 17:49 | 32.00313 | 34.87822 | 120 ft | 4 kts | 38° |
| 2026-05-07 17:49 | 32.00293 | 34.87806 | 116 ft | 3 kts | 32° |
| 2026-05-07 17:49 | 32.00270 | 34.87790 | 120 ft | 3 kts | 31° |
| 2026-05-07 17:49 | 32.00268 | 34.87788 | 120 ft | 0 kts | 31° |
| 2026-05-07 17:55 | 32.00273 | 34.87792 | 120 ft | 0 kts | 31° |
| 2026-05-07 17:55 | 32.00274 | 34.87793 | 120 ft | 1 kts | 31° |
| 2026-05-07 17:55 | 32.00283 | 34.87799 | 120 ft | 0 kts | 31° |
| 2026-05-07 17:55 | 32.00288 | 34.87802 | 120 ft | 2 kts | 31° |
| 2026-05-07 17:56 | 32.00308 | 34.87816 | 116 ft | 5 kts | 31° |
| 2026-05-07 17:56 | 32.00343 | 34.87841 | 120 ft | 7 kts | 31° |
| 2026-05-07 17:56 | 32.00393 | 34.87878 | 120 ft | 10 kts | 32° |
| 2026-05-07 17:56 | 32.00458 | 34.87926 | 117 ft | 12 kts | 32° |
| 2026-05-07 17:57 | 32.00541 | 34.87950 | 118 ft | 14 kts | 322° |
| 2026-05-07 17:57 | 32.00581 | 34.87910 | 120 ft | 11 kts | 355° |
| 2026-05-07 17:57 | 32.00687 | 34.87986 | 118 ft | 15 kts | 34° |
| 2026-05-07 17:57 | 32.00783 | 34.88060 | 120 ft | 17 kts | 32° |
| 2026-05-07 17:58 | 32.00892 | 34.88139 | 120 ft | 19 kts | 31° |
| 2026-05-07 17:58 | 32.01011 | 34.88225 | 120 ft | 21 kts | 31° |
| 2026-05-07 17:58 | 32.01144 | 34.88321 | 117 ft | 23 kts | 31° |
| 2026-05-07 17:58 | 32.01281 | 34.88428 | 118 ft | 25 kts | 40° |
| 2026-05-07 17:59 | 32.01398 | 34.88576 | 117 ft | 22 kts | 56° |
| 2026-05-07 17:59 | 32.01469 | 34.88731 | 118 ft | 21 kts | 67° |
| 2026-05-07 17:59 | 32.01506 | 34.88906 | 117 ft | 23 kts | 80° |
| 2026-05-07 17:59 | 32.01532 | 34.89072 | 117 ft | 20 kts | 79° |
| 2026-05-07 18:00 | 32.01597 | 34.89161 | 117 ft | 15 kts | 359° |
| 2026-05-07 18:00 | 32.01713 | 34.89143 | 117 ft | 18 kts | 352° |
| 2026-05-07 18:00 | 32.01744 | 34.89083 | 117 ft | 8 kts | 259° |
| 2026-05-07 18:00 | 32.01738 | 34.89043 | 120 ft | 0 kts | 261° |
| 2026-05-07 18:01 | 32.01720 | 34.88914 | 121 ft | 50 kts | 260° |
| 2026-05-07 18:01 | 32.01620 | 34.88246 | 120 ft | 113 kts | 259° |
| 2026-05-07 18:01 | 32.01448 | 34.87136 | 123 ft | 161 kts | 261° |
| 2026-05-07 18:01 | 32.01249 | 34.85871 | 645 ft | 162 kts | 258° |
| 2026-05-07 18:02 | 32.00678 | 34.83223 | 1847 ft | 172 kts | 258° |
| 2026-05-07 18:02 | 32.00371 | 34.81768 | 2263 ft | 185 kts | 259° |
| 2026-05-07 18:02 | 32.00076 | 34.80302 | 2919 ft | 183 kts | 260° |
| 2026-05-07 18:03 | 31.99883 | 34.79336 | 3336 ft | 183 kts | 261° |
| 2026-05-07 18:03 | 31.99468 | 34.77242 | 3775 ft | 212 kts | 260° |
| 2026-05-07 18:03 | 31.99192 | 34.75467 | 4090 ft | 234 kts | 272° |
| 2026-05-07 18:03 | 31.99452 | 34.73501 | 4514 ft | 255 kts | 288° |
| 2026-05-07 18:04 | 31.99935 | 34.71429 | 5218 ft | 267 kts | 288° |
| 2026-05-07 18:04 | 32.00444 | 34.69301 | 6096 ft | 273 kts | 288° |
| 2026-05-07 18:04 | 32.00967 | 34.67130 | 6993 ft | 277 kts | 287° |
| 2026-05-07 18:04 | 32.01493 | 34.64927 | 7890 ft | 281 kts | 287° |
| 2026-05-07 18:05 | 32.02023 | 34.62692 | 8774 ft | 285 kts | 287° |
| 2026-05-07 18:05 | 32.02557 | 34.60427 | 9615 ft | 289 kts | 286° |
| 2026-05-07 18:05 | 32.03102 | 34.58126 | 10373 ft | 298 kts | 286° |
| 2026-05-07 18:05 | 32.03685 | 34.55678 | 10685 ft | 321 kts | 286° |
| 2026-05-07 18:06 | 32.04090 | 34.53982 | 11082 ft | 327 kts | 286° |
| 2026-05-07 18:06 | 32.04910 | 34.50531 | 12155 ft | 333 kts | 285° |
| 2026-05-07 18:06 | 32.05534 | 34.47897 | 13018 ft | 335 kts | 285° |
| 2026-05-07 18:06 | 32.06160 | 34.45243 | 13855 ft | 337 kts | 285° |
| 2026-05-07 18:07 | 32.06790 | 34.42567 | 14668 ft | 340 kts | 285° |
| 2026-05-07 18:07 | 32.07210 | 34.40784 | 15185 ft | 342 kts | 286° |
| 2026-05-07 18:07 | 32.07851 | 34.38069 | 15958 ft | 345 kts | 286° |
| 2026-05-07 18:07 | 32.08717 | 34.34407 | 16941 ft | 349 kts | 286° |
| 2026-05-07 18:08 | 32.09148 | 34.32579 | 17430 ft | 350 kts | 286° |
| 2026-05-07 18:08 | 32.09802 | 34.29801 | 18128 ft | 353 kts | 286° |
| 2026-05-07 18:08 | 32.10461 | 34.26995 | 18841 ft | 356 kts | 286° |
| 2026-05-07 18:08 | 32.11125 | 34.24166 | 19539 ft | 359 kts | 286° |
| 2026-05-07 18:09 | 32.11797 | 34.21315 | 20249 ft | 363 kts | 286° |
| 2026-05-07 18:09 | 32.12474 | 34.18433 | 20957 ft | 367 kts | 286° |
| 2026-05-07 18:09 | 32.13159 | 34.15517 | 21634 ft | 370 kts | 286° |
| 2026-05-07 18:09 | 32.13849 | 34.12575 | 22304 ft | 374 kts | 286° |
| 2026-05-07 18:10 | 32.14534 | 34.09646 | 22941 ft | 377 kts | 286° |
| 2026-05-07 18:10 | 32.15231 | 34.06647 | 23579 ft | 381 kts | 286° |
| 2026-05-07 18:10 | 32.15934 | 34.03618 | 24203 ft | 384 kts | 286° |
| 2026-05-07 18:10 | 32.16645 | 34.00564 | 24810 ft | 388 kts | 287° |
| 2026-05-07 18:11 | 32.17625 | 33.97593 | 25388 ft | 390 kts | 296° |
| 2026-05-07 18:11 | 32.18827 | 33.94709 | 25973 ft | 393 kts | 296° |
| 2026-05-07 18:11 | 32.20035 | 33.91798 | 26532 ft | 397 kts | 296° |
| 2026-05-07 18:11 | 32.21250 | 33.88858 | 27078 ft | 399 kts | 296° |
| 2026-05-07 18:12 | 32.22472 | 33.85902 | 27608 ft | 402 kts | 296° |
| 2026-05-07 18:12 | 32.23706 | 33.82923 | 28123 ft | 405 kts | 295° |
| 2026-05-07 18:12 | 32.24948 | 33.79925 | 28633 ft | 407 kts | 295° |
| 2026-05-07 18:12 | 32.26193 | 33.76907 | 29113 ft | 410 kts | 295° |
| 2026-05-07 18:13 | 32.27444 | 33.73868 | 29561 ft | 413 kts | 295° |
| 2026-05-07 18:13 | 32.28703 | 33.70813 | 30024 ft | 415 kts | 295° |
| 2026-05-07 18:13 | 32.29968 | 33.67739 | 30458 ft | 417 kts | 295° |
| 2026-05-07 18:13 | 32.31235 | 33.64649 | 30852 ft | 419 kts | 296° |
| 2026-05-07 18:14 | 32.32511 | 33.61532 | 31204 ft | 422 kts | 297° |
| 2026-05-07 18:14 | 32.33769 | 33.58453 | 31686 ft | 421 kts | 297° |
| 2026-05-07 18:14 | 32.35040 | 33.55345 | 32216 ft | 419 kts | 297° |
| 2026-05-07 18:14 | 32.36304 | 33.52253 | 32718 ft | 417 kts | 297° |
| 2026-05-07 18:15 | 32.37562 | 33.49177 | 33245 ft | 414 kts | 297° |
| 2026-05-07 18:15 | 32.38813 | 33.46115 | 33750 ft | 412 kts | 298° |
| 2026-05-07 18:15 | 32.40058 | 33.43072 | 34265 ft | 410 kts | 298° |
| 2026-05-07 18:15 | 32.41297 | 33.40043 | 34750 ft | 408 kts | 298° |
| 2026-05-07 18:16 | 32.42532 | 33.37025 | 35227 ft | 407 kts | 298° |
| 2026-05-07 18:16 | 32.43760 | 33.34016 | 35680 ft | 405 kts | 297° |
| 2026-05-07 18:16 | 32.44981 | 33.31014 | 36101 ft | 404 kts | 297° |
| 2026-05-07 18:16 | 32.46199 | 33.28016 | 36470 ft | 404 kts | 297° |
| 2026-05-07 18:17 | 32.47416 | 33.25013 | 36813 ft | 404 kts | 297° |
| 2026-05-07 18:17 | 32.48633 | 33.22013 | 37162 ft | 404 kts | 297° |
| 2026-05-07 18:17 | 32.49830 | 33.19057 | 37501 ft | 403 kts | 297° |
| 2026-05-07 18:17 | 32.51044 | 33.16062 | 37829 ft | 403 kts | 297° |
| 2026-05-07 18:18 | 32.52260 | 33.13070 | 38055 ft | 404 kts | 297° |
| 2026-05-07 18:18 | 32.54697 | 33.07065 | 38100 ft | 404 kts | 297° |
| 2026-05-07 18:19 | 32.57122 | 33.01062 | 38100 ft | 404 kts | 297° |
| 2026-05-07 18:19 | 32.59545 | 32.95048 | 38099 ft | 404 kts | 297° |
| 2026-05-07 18:20 | 32.61954 | 32.89041 | 38098 ft | 403 kts | 297° |
| 2026-05-07 18:20 | 32.64337 | 32.83084 | 38107 ft | 402 kts | 297° |
| 2026-05-07 18:21 | 32.66742 | 32.77090 | 38112 ft | 402 kts | 298° |
| 2026-05-07 18:21 | 32.69147 | 32.71093 | 38123 ft | 402 kts | 297° |
| 2026-05-07 18:22 | 32.71541 | 32.65089 | 38128 ft | 402 kts | 298° |
| 2026-05-07 18:22 | 32.73936 | 32.59094 | 38134 ft | 401 kts | 298° |
| 2026-05-07 18:23 | 32.76328 | 32.53101 | 38133 ft | 401 kts | 298° |
| 2026-05-07 18:23 | 32.78708 | 32.47107 | 38147 ft | 401 kts | 298° |
| 2026-05-07 18:24 | 32.81068 | 32.41159 | 38134 ft | 400 kts | 298° |
| 2026-05-07 18:24 | 32.84017 | 32.35610 | 38134 ft | 397 kts | 306° |
| 2026-05-07 18:25 | 32.87149 | 32.30209 | 38142 ft | 396 kts | 306° |
| 2026-05-07 18:25 | 32.90271 | 32.24805 | 38134 ft | 396 kts | 306° |
| 2026-05-07 18:26 | 32.93392 | 32.19400 | 38133 ft | 396 kts | 306° |
| 2026-05-07 18:26 | 32.96513 | 32.14002 | 38134 ft | 396 kts | 306° |
| 2026-05-07 18:27 | 32.99607 | 32.08633 | 38134 ft | 396 kts | 306° |
| 2026-05-07 18:27 | 33.02711 | 32.03223 | 38133 ft | 395 kts | 306° |
| 2026-05-07 18:28 | 33.05816 | 31.97811 | 38135 ft | 395 kts | 306° |
| 2026-05-07 18:28 | 33.08910 | 31.92416 | 38144 ft | 393 kts | 307° |
| 2026-05-07 18:29 | 33.11988 | 31.87052 | 38150 ft | 391 kts | 307° |
| 2026-05-07 18:29 | 33.15027 | 31.81744 | 38152 ft | 389 kts | 307° |
| 2026-05-07 18:30 | 33.18070 | 31.76413 | 38146 ft | 389 kts | 307° |
| 2026-05-07 18:30 | 33.21107 | 31.71079 | 38146 ft | 387 kts | 307° |
| 2026-05-07 18:31 | 33.24139 | 31.65765 | 38143 ft | 387 kts | 307° |
| 2026-05-07 18:31 | 33.27162 | 31.60447 | 38146 ft | 387 kts | 307° |
| 2026-05-07 18:32 | 33.30158 | 31.55172 | 38140 ft | 386 kts | 307° |
| 2026-05-07 18:32 | 33.33174 | 31.49868 | 38148 ft | 386 kts | 307° |
| 2026-05-07 18:33 | 33.36177 | 31.44556 | 38144 ft | 385 kts | 307° |
| 2026-05-07 18:33 | 33.39171 | 31.39249 | 38140 ft | 385 kts | 307° |
| 2026-05-07 18:34 | 33.42163 | 31.33957 | 38145 ft | 384 kts | 307° |
| 2026-05-07 18:34 | 33.45121 | 31.28702 | 38143 ft | 383 kts | 307° |
| 2026-05-07 18:35 | 33.48093 | 31.23421 | 38144 ft | 382 kts | 307° |
| 2026-05-07 18:35 | 33.51057 | 31.18146 | 38147 ft | 381 kts | 307° |
| 2026-05-07 18:36 | 33.54013 | 31.12884 | 38150 ft | 380 kts | 307° |
| 2026-05-07 18:36 | 33.56958 | 31.07636 | 38145 ft | 379 kts | 307° |
| 2026-05-07 18:37 | 33.59869 | 31.02441 | 38144 ft | 377 kts | 307° |
| 2026-05-07 18:37 | 33.62785 | 30.97220 | 38153 ft | 376 kts | 307° |
| 2026-05-07 18:38 | 33.65686 | 30.92015 | 38147 ft | 375 kts | 307° |
| 2026-05-07 18:38 | 33.68576 | 30.86827 | 38152 ft | 373 kts | 307° |
| 2026-05-07 18:39 | 33.71463 | 30.81651 | 38144 ft | 372 kts | 307° |
| 2026-05-07 18:39 | 33.74334 | 30.76497 | 38147 ft | 370 kts | 308° |
| 2026-05-07 18:40 | 33.77186 | 30.71357 | 38153 ft | 369 kts | 308° |
| 2026-05-07 18:40 | 33.80004 | 30.66268 | 38152 ft | 367 kts | 308° |
| 2026-05-07 18:41 | 33.82822 | 30.61167 | 38151 ft | 366 kts | 308° |
| 2026-05-07 18:41 | 33.85634 | 30.56088 | 38152 ft | 364 kts | 308° |
| 2026-05-07 18:42 | 33.88432 | 30.51020 | 38156 ft | 362 kts | 308° |
| 2026-05-07 18:42 | 33.91217 | 30.45969 | 38160 ft | 362 kts | 308° |
| 2026-05-07 18:43 | 33.93990 | 30.40924 | 38161 ft | 361 kts | 308° |
| 2026-05-07 18:43 | 33.96747 | 30.35899 | 38158 ft | 359 kts | 308° |
| 2026-05-07 18:44 | 33.99469 | 30.30937 | 38158 ft | 356 kts | 308° |
| 2026-05-07 18:44 | 34.02198 | 30.25970 | 38158 ft | 356 kts | 308° |
| 2026-05-07 18:45 | 34.04919 | 30.20994 | 38161 ft | 355 kts | 308° |
| 2026-05-07 18:45 | 34.07633 | 30.16028 | 38155 ft | 355 kts | 308° |
| 2026-05-07 18:46 | 34.10339 | 30.11061 | 38152 ft | 354 kts | 308° |
| 2026-05-07 18:46 | 34.13050 | 30.06090 | 38164 ft | 354 kts | 308° |
| 2026-05-07 18:47 | 34.15740 | 30.01153 | 38163 ft | 355 kts | 308° |
| 2026-05-07 18:47 | 34.18523 | 29.96259 | 38171 ft | 352 kts | 310° |
| 2026-05-07 18:48 | 34.21443 | 29.91523 | 38168 ft | 350 kts | 311° |
| 2026-05-07 18:48 | 34.24354 | 29.86811 | 38167 ft | 350 kts | 310° |
| 2026-05-07 18:49 | 34.27239 | 29.82061 | 38165 ft | 351 kts | 310° |
| 2026-05-07 18:49 | 34.30112 | 29.77292 | 38166 ft | 351 kts | 310° |
| 2026-05-07 18:50 | 34.32971 | 29.72543 | 38169 ft | 351 kts | 310° |
| 2026-05-07 18:50 | 34.35849 | 29.67761 | 38164 ft | 352 kts | 310° |
| 2026-05-07 18:51 | 34.38724 | 29.62987 | 38170 ft | 351 kts | 310° |
| 2026-05-07 18:51 | 34.41596 | 29.58206 | 38164 ft | 352 kts | 310° |
| 2026-05-07 18:52 | 34.44458 | 29.53410 | 38168 ft | 352 kts | 310° |
| 2026-05-07 18:52 | 34.47312 | 29.48641 | 38168 ft | 351 kts | 310° |
| 2026-05-07 18:53 | 34.50182 | 29.43839 | 38177 ft | 352 kts | 310° |
| 2026-05-07 18:53 | 34.53054 | 29.39038 | 38184 ft | 351 kts | 309° |
| 2026-05-07 18:54 | 34.55920 | 29.34233 | 38184 ft | 351 kts | 309° |
| 2026-05-07 18:54 | 34.58775 | 29.29433 | 38185 ft | 351 kts | 309° |
| 2026-05-07 18:55 | 34.61613 | 29.24672 | 38182 ft | 351 kts | 309° |
| 2026-05-07 18:55 | 34.64466 | 29.19873 | 38175 ft | 351 kts | 309° |
| 2026-05-07 18:56 | 34.67309 | 29.15071 | 38171 ft | 350 kts | 309° |
| 2026-05-07 18:56 | 34.70147 | 29.10268 | 38169 ft | 350 kts | 309° |
| 2026-05-07 18:57 | 34.72984 | 29.05471 | 38168 ft | 349 kts | 309° |
| 2026-05-07 18:57 | 34.75823 | 29.00688 | 38165 ft | 349 kts | 309° |
| 2026-05-07 18:58 | 34.78630 | 28.95931 | 38165 ft | 349 kts | 309° |
| 2026-05-07 18:58 | 34.81456 | 28.91129 | 38165 ft | 349 kts | 309° |
| 2026-05-07 18:59 | 34.84278 | 28.86340 | 38170 ft | 348 kts | 309° |
| 2026-05-07 18:59 | 34.87093 | 28.81555 | 38178 ft | 348 kts | 309° |
| 2026-05-07 19:00 | 34.89899 | 28.76768 | 38181 ft | 347 kts | 309° |
| 2026-05-07 19:00 | 34.92696 | 28.71990 | 38192 ft | 346 kts | 309° |
| 2026-05-07 19:01 | 34.95465 | 28.67244 | 38198 ft | 345 kts | 309° |
| 2026-05-07 19:01 | 34.98245 | 28.62483 | 38192 ft | 344 kts | 309° |
| 2026-05-07 19:02 | 35.01016 | 28.57732 | 38193 ft | 343 kts | 309° |
| 2026-05-07 19:02 | 35.03781 | 28.52987 | 38197 ft | 343 kts | 309° |
| 2026-05-07 19:03 | 35.06543 | 28.48248 | 38197 ft | 342 kts | 309° |
| 2026-05-07 19:03 | 35.09273 | 28.43551 | 38187 ft | 341 kts | 309° |
| 2026-05-07 19:04 | 35.12014 | 28.38832 | 38192 ft | 341 kts | 309° |
| 2026-05-07 19:04 | 35.14751 | 28.34106 | 38195 ft | 340 kts | 309° |
| 2026-05-07 19:05 | 35.17478 | 28.29394 | 38192 ft | 339 kts | 308° |
| 2026-05-07 19:05 | 35.20196 | 28.24680 | 38195 ft | 339 kts | 309° |
| 2026-05-07 19:06 | 35.22918 | 28.19977 | 38193 ft | 338 kts | 309° |
| 2026-05-07 19:06 | 35.26964 | 28.12973 | 38198 ft | 337 kts | 309° |
| 2026-05-07 19:07 | 35.29664 | 28.08283 | 38199 ft | 337 kts | 308° |
| 2026-05-07 19:07 | 35.32357 | 28.03593 | 38194 ft | 336 kts | 308° |
| 2026-05-07 19:08 | 35.35048 | 27.98906 | 38195 ft | 336 kts | 308° |
| 2026-05-07 19:08 | 35.37719 | 27.94226 | 38195 ft | 334 kts | 308° |
| 2026-05-07 19:09 | 35.40374 | 27.89576 | 38196 ft | 332 kts | 308° |
| 2026-05-07 19:09 | 35.43004 | 27.84979 | 38195 ft | 331 kts | 308° |
| 2026-05-07 19:10 | 35.45649 | 27.80362 | 38189 ft | 331 kts | 309° |
| 2026-05-07 19:10 | 35.48289 | 27.75747 | 38191 ft | 330 kts | 309° |
| 2026-05-07 19:11 | 35.50920 | 27.71127 | 38187 ft | 330 kts | 308° |
| 2026-05-07 19:11 | 35.53540 | 27.66505 | 38187 ft | 330 kts | 308° |
| 2026-05-07 19:12 | 35.56166 | 27.61881 | 38182 ft | 330 kts | 308° |
| 2026-05-07 19:12 | 35.58783 | 27.57260 | 38180 ft | 329 kts | 308° |
| 2026-05-07 19:13 | 35.61383 | 27.52676 | 38181 ft | 329 kts | 308° |
| 2026-05-07 19:13 | 35.63996 | 27.48061 | 38178 ft | 328 kts | 308° |
| 2026-05-07 19:14 | 35.66603 | 27.43457 | 38174 ft | 329 kts | 308° |
| 2026-05-07 19:14 | 35.69207 | 27.38833 | 38178 ft | 329 kts | 308° |
| 2026-05-07 19:15 | 35.71812 | 27.34203 | 38173 ft | 329 kts | 308° |
| 2026-05-07 19:15 | 35.74411 | 27.29580 | 38172 ft | 329 kts | 308° |
| 2026-05-07 19:16 | 35.77000 | 27.24974 | 38172 ft | 329 kts | 308° |
| 2026-05-07 19:16 | 35.79605 | 27.20331 | 38168 ft | 329 kts | 308° |
| 2026-05-07 19:17 | 35.82210 | 27.15684 | 38169 ft | 330 kts | 309° |
| 2026-05-07 19:17 | 35.84815 | 27.11029 | 38172 ft | 330 kts | 308° |
| 2026-05-07 19:18 | 35.87420 | 27.06362 | 38176 ft | 331 kts | 308° |
| 2026-05-07 19:18 | 35.90023 | 27.01686 | 38178 ft | 331 kts | 308° |
| 2026-05-07 19:19 | 35.92612 | 26.97048 | 38178 ft | 330 kts | 308° |
| 2026-05-07 19:19 | 35.95219 | 26.92377 | 38181 ft | 330 kts | 308° |
| 2026-05-07 19:20 | 35.97809 | 26.87715 | 38177 ft | 329 kts | 308° |
| 2026-05-07 19:20 | 36.00404 | 26.83048 | 38173 ft | 330 kts | 308° |
| 2026-05-07 19:21 | 36.02995 | 26.78367 | 38173 ft | 330 kts | 308° |
| 2026-05-07 19:21 | 36.05586 | 26.73676 | 38173 ft | 331 kts | 308° |
| 2026-05-07 19:22 | 36.08164 | 26.69017 | 38176 ft | 331 kts | 308° |